sensor_id;sensor_type;location;lat;lon;timestamp;P1;durP1;ratioP1;P2;durP2;ratioP2
75746;SDS011;70632;52.232;21.038;2024-02-14T02:04:23;15.45;;;7.10;;
75746;SDS011;70632;52.232;21.038;2024-02-14T02:06:50;17.67;;;7.75;;
75746;SDS011;70632;52.232;21.038;2024-02-14T02:09:17;15.25;;;6.82;;
75746;SDS011;70632;52.232;21.038;2024-02-14T02:11:47;20.38;;;8.00;;
75746;SDS011;70632;52.232;21.038;2024-02-14T02:14:14;15.55;;;7.65;;
75746;SDS011;70632;52.232;21.038;2024-02-14T02:16:40;16.02;;;7.82;;
75746;SDS011;70632;52.232;21.038;2024-02-14T02:19:06;24.42;;;8.75;;
75746;SDS011;70632;52.232;21.038;2024-02-14T02:21:35;16.40;;;6.93;;
75746;SDS011;70632;52.232;21.038;2024-02-14T02:24:01;17.75;;;7.40;;
75746;SDS011;70632;52.232;21.038;2024-02-14T02:26:27;19.75;;;7.70;;
75746;SDS011;70632;52.232;21.038;2024-02-14T02:28:53;15.95;;;6.93;;
75746;SDS011;70632;52.232;21.038;2024-02-14T02:31:19;14.80;;;7.38;;
75746;SDS011;70632;52.232;21.038;2024-02-14T02:33:45;14.40;;;6.82;;
75746;SDS011;70632;52.232;21.038;2024-02-14T02:36:11;17.70;;;7.60;;
75746;SDS011;70632;52.232;21.038;2024-02-14T02:38:37;14.15;;;7.35;;
75746;SDS011;70632;52.232;21.038;2024-02-14T02:41:03;20.73;;;7.45;;
75746;SDS011;70632;52.232;21.038;2024-02-14T02:43:33;20.42;;;7.55;;
75746;SDS011;70632;52.232;21.038;2024-02-14T02:46:00;16.25;;;7.93;;
75746;SDS011;70632;52.232;21.038;2024-02-14T02:48:26;17.92;;;8.43;;
75746;SDS011;70632;52.232;21.038;2024-02-14T02:50:53;16.77;;;7.53;;
75746;SDS011;70632;52.232;21.038;2024-02-14T02:53:19;16.63;;;7.25;;
75746;SDS011;70632;52.232;21.038;2024-02-14T02:55:46;15.55;;;7.25;;
75746;SDS011;70632;52.232;21.038;2024-02-14T02:58:12;17.50;;;7.60;;
75746;SDS011;70632;52.232;21.038;2024-02-14T03:00:39;20.83;;;7.95;;
75746;SDS011;70632;52.232;21.038;2024-02-14T03:03:07;20.35;;;7.20;;
75746;SDS011;70632;52.232;21.038;2024-02-14T03:07:59;19.20;;;7.55;;
75746;SDS011;70632;52.232;21.038;2024-02-14T03:10:26;19.27;;;7.93;;
75746;SDS011;70632;52.232;21.038;2024-02-14T03:12:52;19.88;;;9.15;;
75746;SDS011;70632;52.232;21.038;2024-02-14T03:15:18;15.40;;;7.53;;
75746;SDS011;70632;52.232;21.038;2024-02-14T03:17:45;21.80;;;9.95;;
75746;SDS011;70632;52.232;21.038;2024-02-14T03:20:14;19.13;;;8.90;;
75746;SDS011;70632;52.232;21.038;2024-02-14T03:22:40;18.85;;;8.95;;
75746;SDS011;70632;52.232;21.038;2024-02-14T03:25:19;23.20;;;9.95;;
75746;SDS011;70632;52.232;21.038;2024-02-14T03:27:45;22.98;;;9.80;;
75746;SDS011;70632;52.232;21.038;2024-02-14T03:30:12;22.27;;;9.63;;
75746;SDS011;70632;52.232;21.038;2024-02-14T03:32:41;20.92;;;9.50;;
75746;SDS011;70632;52.232;21.038;2024-02-14T03:35:11;22.13;;;9.98;;
75746;SDS011;70632;52.232;21.038;2024-02-14T03:37:39;32.47;;;10.98;;
75746;SDS011;70632;52.232;21.038;2024-02-14T03:40:08;23.52;;;10.30;;
75746;SDS011;70632;52.232;21.038;2024-02-14T03:42:35;27.15;;;10.35;;
75746;SDS011;70632;52.232;21.038;2024-02-14T03:45:01;21.77;;;10.02;;
75746;SDS011;70632;52.232;21.038;2024-02-14T03:47:34;20.38;;;10.32;;
75746;SDS011;70632;52.232;21.038;2024-02-14T03:50:00;27.85;;;11.00;;
75746;SDS011;70632;52.232;21.038;2024-02-14T03:52:27;24.35;;;11.15;;
75746;SDS011;70632;52.232;21.038;2024-02-14T03:54:53;27.77;;;11.05;;
75746;SDS011;70632;52.232;21.038;2024-02-14T03:57:19;29.02;;;12.65;;
75746;SDS011;70632;52.232;21.038;2024-02-14T03:59:45;29.02;;;11.48;;
75746;SDS011;70632;52.232;21.038;2024-02-14T04:02:11;24.77;;;12.98;;
75746;SDS011;70632;52.232;21.038;2024-02-14T04:04:41;26.67;;;12.00;;
75746;SDS011;70632;52.232;21.038;2024-02-14T04:07:07;26.73;;;11.73;;
75746;SDS011;70632;52.232;21.038;2024-02-14T04:09:34;27.05;;;11.68;;
75746;SDS011;70632;52.232;21.038;2024-02-14T04:12:00;24.45;;;11.82;;
75746;SDS011;70632;52.232;21.038;2024-02-14T04:14:26;32.20;;;12.77;;
75746;SDS011;70632;52.232;21.038;2024-02-14T04:16:52;26.45;;;12.38;;
75746;SDS011;70632;52.232;21.038;2024-02-14T04:19:17;30.67;;;13.13;;
75746;SDS011;70632;52.232;21.038;2024-02-14T04:21:43;32.50;;;13.40;;
75746;SDS011;70632;52.232;21.038;2024-02-14T04:24:10;26.48;;;12.18;;
75746;SDS011;70632;52.232;21.038;2024-02-14T04:26:35;25.77;;;11.07;;
75746;SDS011;70632;52.232;21.038;2024-02-14T04:29:01;30.27;;;13.10;;
75746;SDS011;70632;52.232;21.038;2024-02-14T04:31:27;29.67;;;12.30;;
75746;SDS011;70632;52.232;21.038;2024-02-14T04:33:55;29.42;;;12.32;;
75746;SDS011;70632;52.232;21.038;2024-02-14T04:36:21;27.80;;;12.27;;
75746;SDS011;70632;52.232;21.038;2024-02-14T04:38:50;32.83;;;12.25;;
75746;SDS011;70632;52.232;21.038;2024-02-14T04:41:16;30.60;;;12.68;;
75746;SDS011;70632;52.232;21.038;2024-02-14T04:43:42;29.35;;;13.02;;
75746;SDS011;70632;52.232;21.038;2024-02-14T04:46:07;30.38;;;13.10;;
75746;SDS011;70632;52.232;21.038;2024-02-14T04:48:34;28.05;;;12.48;;
75746;SDS011;70632;52.232;21.038;2024-02-14T04:51:00;30.48;;;12.98;;
75746;SDS011;70632;52.232;21.038;2024-02-14T04:53:27;29.73;;;12.60;;
75746;SDS011;70632;52.232;21.038;2024-02-14T04:55:53;29.67;;;11.88;;
75746;SDS011;70632;52.232;21.038;2024-02-14T04:58:19;29.38;;;11.98;;
75746;SDS011;70632;52.232;21.038;2024-02-14T05:00:45;25.63;;;10.90;;
75746;SDS011;70632;52.232;21.038;2024-02-14T05:03:11;30.67;;;13.73;;
75746;SDS011;70632;52.232;21.038;2024-02-14T05:05:37;31.63;;;12.82;;
75746;SDS011;70632;52.232;21.038;2024-02-14T05:08:04;33.67;;;13.45;;
75746;SDS011;70632;52.232;21.038;2024-02-14T05:10:30;25.35;;;12.45;;
75746;SDS011;70632;52.232;21.038;2024-02-14T05:12:56;26.27;;;10.68;;
75746;SDS011;70632;52.232;21.038;2024-02-14T05:15:23;26.02;;;11.38;;
75746;SDS011;70632;52.232;21.038;2024-02-14T05:17:49;27.75;;;12.73;;
75746;SDS011;70632;52.232;21.038;2024-02-14T05:20:15;25.23;;;12.02;;
75746;SDS011;70632;52.232;21.038;2024-02-14T05:22:42;29.10;;;13.15;;
75746;SDS011;70632;52.232;21.038;2024-02-14T05:25:07;21.85;;;9.68;;
75746;SDS011;70632;52.232;21.038;2024-02-14T05:27:34;29.83;;;10.85;;
75746;SDS011;70632;52.232;21.038;2024-02-14T05:30:05;29.17;;;12.00;;
75746;SDS011;70632;52.232;21.038;2024-02-14T05:32:32;21.48;;;10.00;;
75746;SDS011;70632;52.232;21.038;2024-02-14T05:34:58;21.45;;;10.75;;
75746;SDS011;70632;52.232;21.038;2024-02-14T05:37:24;25.92;;;10.68;;
75746;SDS011;70632;52.232;21.038;2024-02-14T05:39:50;23.77;;;10.57;;
75746;SDS011;70632;52.232;21.038;2024-02-14T05:42:16;22.38;;;9.80;;
75746;SDS011;70632;52.232;21.038;2024-02-14T05:44:42;31.15;;;11.05;;
75746;SDS011;70632;52.232;21.038;2024-02-14T05:47:11;26.42;;;11.32;;
75746;SDS011;70632;52.232;21.038;2024-02-14T05:49:40;28.80;;;11.13;;
75746;SDS011;70632;52.232;21.038;2024-02-14T05:52:06;21.58;;;9.75;;
75746;SDS011;70632;52.232;21.038;2024-02-14T05:54:33;22.13;;;10.77;;
75746;SDS011;70632;52.232;21.038;2024-02-14T05:56:59;24.15;;;11.57;;
75746;SDS011;70632;52.232;21.038;2024-02-14T05:59:27;27.65;;;11.45;;
75746;SDS011;70632;52.232;21.038;2024-02-14T06:01:53;25.80;;;10.70;;
75746;SDS011;70632;52.232;21.038;2024-02-14T06:04:19;25.05;;;10.45;;
75746;SDS011;70632;52.232;21.038;2024-02-14T06:06:45;23.63;;;10.38;;
75746;SDS011;70632;52.232;21.038;2024-02-14T06:09:10;21.00;;;10.30;;
75746;SDS011;70632;52.232;21.038;2024-02-14T06:11:37;28.38;;;10.90;;
75746;SDS011;70632;52.232;21.038;2024-02-14T06:14:07;22.48;;;8.70;;
75746;SDS011;70632;52.232;21.038;2024-02-14T06:16:34;26.40;;;10.00;;
75746;SDS011;70632;52.232;21.038;2024-02-14T06:19:00;17.88;;;9.60;;
75746;SDS011;70632;52.232;21.038;2024-02-14T06:21:26;21.58;;;10.77;;
75746;SDS011;70632;52.232;21.038;2024-02-14T06:23:52;21.10;;;9.43;;
75746;SDS011;70632;52.232;21.038;2024-02-14T06:26:18;26.42;;;11.07;;
75746;SDS011;70632;52.232;21.038;2024-02-14T06:28:44;21.70;;;10.00;;
75746;SDS011;70632;52.232;21.038;2024-02-14T06:31:11;23.40;;;10.48;;
75746;SDS011;70632;52.232;21.038;2024-02-14T06:33:36;21.52;;;10.05;;
75746;SDS011;70632;52.232;21.038;2024-02-14T06:36:02;22.95;;;10.10;;
75746;SDS011;70632;52.232;21.038;2024-02-14T06:38:28;22.55;;;10.77;;
75746;SDS011;70632;52.232;21.038;2024-02-14T06:40:56;25.77;;;10.63;;
75746;SDS011;70632;52.232;21.038;2024-02-14T06:43:22;24.98;;;10.18;;
75746;SDS011;70632;52.232;21.038;2024-02-14T06:45:48;20.48;;;9.98;;
75746;SDS011;70632;52.232;21.038;2024-02-14T06:48:13;22.85;;;10.68;;
75746;SDS011;70632;52.232;21.038;2024-02-14T06:50:39;23.30;;;10.65;;
75746;SDS011;70632;52.232;21.038;2024-02-14T06:53:05;27.13;;;11.55;;
75746;SDS011;70632;52.232;21.038;2024-02-14T06:55:31;28.15;;;11.60;;
75746;SDS011;70632;52.232;21.038;2024-02-14T06:57:58;27.05;;;10.88;;
75746;SDS011;70632;52.232;21.038;2024-02-14T07:00:25;31.98;;;10.15;;
75746;SDS011;70632;52.232;21.038;2024-02-14T07:02:50;24.45;;;10.88;;
75746;SDS011;70632;52.232;21.038;2024-02-14T07:05:16;23.60;;;9.80;;
75746;SDS011;70632;52.232;21.038;2024-02-14T07:07:42;24.98;;;10.95;;
75746;SDS011;70632;52.232;21.038;2024-02-14T07:10:08;26.15;;;11.48;;
75746;SDS011;70632;52.232;21.038;2024-02-14T07:12:34;25.80;;;10.85;;
75746;SDS011;70632;52.232;21.038;2024-02-14T07:15:02;21.60;;;10.80;;
75746;SDS011;70632;52.232;21.038;2024-02-14T07:17:29;25.83;;;11.10;;
75746;SDS011;70632;52.232;21.038;2024-02-14T07:19:55;27.75;;;11.23;;
75746;SDS011;70632;52.232;21.038;2024-02-14T07:22:21;23.10;;;10.57;;
75746;SDS011;70632;52.232;21.038;2024-02-14T07:24:47;23.85;;;10.75;;
75746;SDS011;70632;52.232;21.038;2024-02-14T07:27:14;26.95;;;11.00;;
75746;SDS011;70632;52.232;21.038;2024-02-14T07:29:42;23.35;;;10.52;;
75746;SDS011;70632;52.232;21.038;2024-02-14T07:32:07;20.48;;;11.48;;
75746;SDS011;70632;52.232;21.038;2024-02-14T07:34:33;23.33;;;11.75;;
75746;SDS011;70632;52.232;21.038;2024-02-14T07:36:59;22.58;;;10.00;;
75746;SDS011;70632;52.232;21.038;2024-02-14T07:39:25;27.63;;;11.55;;
75746;SDS011;70632;52.232;21.038;2024-02-14T07:41:51;22.33;;;10.23;;
75746;SDS011;70632;52.232;21.038;2024-02-14T07:44:17;23.40;;;10.80;;
75746;SDS011;70632;52.232;21.038;2024-02-14T07:46:43;23.98;;;10.13;;
75746;SDS011;70632;52.232;21.038;2024-02-14T07:49:09;21.17;;;9.75;;
75746;SDS011;70632;52.232;21.038;2024-02-14T07:51:35;23.15;;;10.48;;
75746;SDS011;70632;52.232;21.038;2024-02-14T07:54:05;23.65;;;10.82;;
75746;SDS011;70632;52.232;21.038;2024-02-14T07:56:31;24.50;;;9.93;;
75746;SDS011;70632;52.232;21.038;2024-02-14T07:58:57;24.33;;;9.75;;
75746;SDS011;70632;52.232;21.038;2024-02-14T08:01:23;22.15;;;10.38;;
75746;SDS011;70632;52.232;21.038;2024-02-14T08:03:49;23.65;;;10.05;;
75746;SDS011;70632;52.232;21.038;2024-02-14T08:06:15;26.75;;;9.38;;
75746;SDS011;70632;52.232;21.038;2024-02-14T08:08:40;26.80;;;11.20;;
75746;SDS011;70632;52.232;21.038;2024-02-14T08:11:06;21.55;;;10.13;;
75746;SDS011;70632;52.232;21.038;2024-02-14T08:13:32;23.80;;;10.75;;
75746;SDS011;70632;52.232;21.038;2024-02-14T08:16:00;22.13;;;10.38;;
75746;SDS011;70632;52.232;21.038;2024-02-14T08:18:25;20.70;;;10.68;;
75746;SDS011;70632;52.232;21.038;2024-02-14T08:20:53;26.42;;;10.40;;
75746;SDS011;70632;52.232;21.038;2024-02-14T08:23:18;21.13;;;10.98;;
75746;SDS011;70632;52.232;21.038;2024-02-14T08:25:45;19.10;;;10.70;;
75746;SDS011;70632;52.232;21.038;2024-02-14T08:28:11;19.38;;;9.75;;
75746;SDS011;70632;52.232;21.038;2024-02-14T08:30:37;21.60;;;9.98;;
75746;SDS011;70632;52.232;21.038;2024-02-14T08:33:03;18.10;;;8.77;;
75746;SDS011;70632;52.232;21.038;2024-02-14T08:35:29;20.33;;;9.95;;
75746;SDS011;70632;52.232;21.038;2024-02-14T08:37:55;14.90;;;8.10;;
75746;SDS011;70632;52.232;21.038;2024-02-14T08:40:21;19.13;;;8.55;;
75746;SDS011;70632;52.232;21.038;2024-02-14T08:45:15;18.95;;;8.07;;
75746;SDS011;70632;52.232;21.038;2024-02-14T08:47:43;15.43;;;7.50;;
75746;SDS011;70632;52.232;21.038;2024-02-14T08:50:09;20.45;;;7.40;;
75746;SDS011;70632;52.232;21.038;2024-02-14T08:52:35;15.07;;;7.53;;
75746;SDS011;70632;52.232;21.038;2024-02-14T08:55:03;12.80;;;7.05;;
75746;SDS011;70632;52.232;21.038;2024-02-14T08:57:31;18.23;;;8.20;;
75746;SDS011;70632;52.232;21.038;2024-02-14T08:59:57;17.75;;;9.40;;
75746;SDS011;70632;52.232;21.038;2024-02-14T09:02:22;18.02;;;7.70;;
75746;SDS011;70632;52.232;21.038;2024-02-14T09:04:48;13.38;;;6.03;;
75746;SDS011;70632;52.232;21.038;2024-02-14T09:07:15;12.55;;;6.68;;
75746;SDS011;70632;52.232;21.038;2024-02-14T09:09:41;13.32;;;6.65;;
75746;SDS011;70632;52.232;21.038;2024-02-14T09:12:07;11.73;;;6.57;;
75746;SDS011;70632;52.232;21.038;2024-02-14T09:14:33;12.98;;;6.32;;
75746;SDS011;70632;52.232;21.038;2024-02-14T09:16:59;16.90;;;7.60;;
75746;SDS011;70632;52.232;21.038;2024-02-14T09:19:25;13.32;;;5.95;;
75746;SDS011;70632;52.232;21.038;2024-02-14T09:21:52;12.45;;;5.95;;
75746;SDS011;70632;52.232;21.038;2024-02-14T09:24:18;11.60;;;6.38;;
75746;SDS011;70632;52.232;21.038;2024-02-14T09:26:44;14.57;;;6.53;;
75746;SDS011;70632;52.232;21.038;2024-02-14T09:29:10;17.00;;;7.43;;
75746;SDS011;70632;52.232;21.038;2024-02-14T09:31:40;11.55;;;6.43;;
75746;SDS011;70632;52.232;21.038;2024-02-14T09:34:06;13.27;;;6.68;;
75746;SDS011;70632;52.232;21.038;2024-02-14T09:36:33;11.45;;;6.18;;
75746;SDS011;70632;52.232;21.038;2024-02-14T09:38:59;11.63;;;6.03;;
75746;SDS011;70632;52.232;21.038;2024-02-14T09:41:25;11.45;;;5.65;;
75746;SDS011;70632;52.232;21.038;2024-02-14T09:43:59;8.82;;;5.18;;
75746;SDS011;70632;52.232;21.038;2024-02-14T09:46:24;10.20;;;5.25;;
75746;SDS011;70632;52.232;21.038;2024-02-14T09:48:53;13.43;;;5.80;;
75746;SDS011;70632;52.232;21.038;2024-02-14T09:51:20;11.13;;;4.72;;
75746;SDS011;70632;52.232;21.038;2024-02-14T09:53:46;14.60;;;5.65;;
75746;SDS011;70632;52.232;21.038;2024-02-14T09:56:15;11.77;;;5.20;;
75746;SDS011;70632;52.232;21.038;2024-02-14T09:58:43;11.65;;;5.85;;
75746;SDS011;70632;52.232;21.038;2024-02-14T10:01:09;10.60;;;5.30;;
75746;SDS011;70632;52.232;21.038;2024-02-14T10:03:35;8.40;;;5.30;;
75746;SDS011;70632;52.232;21.038;2024-02-14T10:06:01;9.70;;;4.60;;
75746;SDS011;70632;52.232;21.038;2024-02-14T10:08:28;8.82;;;4.40;;
75746;SDS011;70632;52.232;21.038;2024-02-14T10:10:56;10.73;;;4.68;;
75746;SDS011;70632;52.232;21.038;2024-02-14T10:13:22;8.43;;;4.40;;
75746;SDS011;70632;52.232;21.038;2024-02-14T10:15:48;13.65;;;4.30;;
75746;SDS011;70632;52.232;21.038;2024-02-14T10:18:14;8.95;;;4.18;;
75746;SDS011;70632;52.232;21.038;2024-02-14T10:20:51;9.60;;;4.72;;
75746;SDS011;70632;52.232;21.038;2024-02-14T10:23:23;8.93;;;4.18;;
75746;SDS011;70632;52.232;21.038;2024-02-14T10:25:58;9.40;;;3.83;;
75746;SDS011;70632;52.232;21.038;2024-02-14T10:28:24;9.07;;;3.80;;
75746;SDS011;70632;52.232;21.038;2024-02-14T10:30:50;8.30;;;4.53;;
75746;SDS011;70632;52.232;21.038;2024-02-14T10:33:16;8.70;;;3.70;;
75746;SDS011;70632;52.232;21.038;2024-02-14T10:35:42;11.68;;;3.17;;
75746;SDS011;70632;52.232;21.038;2024-02-14T10:38:09;8.85;;;3.38;;
75746;SDS011;70632;52.232;21.038;2024-02-14T10:40:37;9.10;;;3.30;;
75746;SDS011;70632;52.232;21.038;2024-02-14T10:43:08;14.55;;;3.17;;
75746;SDS011;70632;52.232;21.038;2024-02-14T10:45:37;6.60;;;2.90;;
75746;SDS011;70632;52.232;21.038;2024-02-14T10:48:06;5.68;;;2.72;;
75746;SDS011;70632;52.232;21.038;2024-02-14T10:50:36;9.38;;;3.65;;
75746;SDS011;70632;52.232;21.038;2024-02-14T10:53:14;7.80;;;3.03;;
75746;SDS011;70632;52.232;21.038;2024-02-14T10:55:45;6.70;;;3.25;;
75746;SDS011;70632;52.232;21.038;2024-02-14T10:58:13;5.82;;;2.85;;
75746;SDS011;70632;52.232;21.038;2024-02-14T11:00:41;5.93;;;2.97;;
75746;SDS011;70632;52.232;21.038;2024-02-14T11:03:08;6.82;;;2.92;;
75746;SDS011;70632;52.232;21.038;2024-02-14T11:05:45;5.25;;;2.45;;
75746;SDS011;70632;52.232;21.038;2024-02-14T11:08:15;10.25;;;3.05;;
75746;SDS011;70632;52.232;21.038;2024-02-14T11:10:52;6.00;;;2.45;;
75746;SDS011;70632;52.232;21.038;2024-02-14T11:13:25;7.85;;;2.83;;
75746;SDS011;70632;52.232;21.038;2024-02-14T11:15:55;7.05;;;2.60;;
75746;SDS011;70632;52.232;21.038;2024-02-14T11:18:25;7.47;;;2.40;;
75746;SDS011;70632;52.232;21.038;2024-02-14T11:20:52;8.13;;;2.70;;
75746;SDS011;70632;52.232;21.038;2024-02-14T11:23:21;6.25;;;2.53;;
75746;SDS011;70632;52.232;21.038;2024-02-14T11:25:47;5.68;;;2.40;;
75746;SDS011;70632;52.232;21.038;2024-02-14T11:28:17;5.90;;;2.65;;
75746;SDS011;70632;52.232;21.038;2024-02-14T11:30:48;7.75;;;2.67;;
75746;SDS011;70632;52.232;21.038;2024-02-14T11:33:22;8.02;;;2.85;;
75746;SDS011;70632;52.232;21.038;2024-02-14T11:35:49;5.80;;;2.50;;
75746;SDS011;70632;52.232;21.038;2024-02-14T11:38:17;5.38;;;2.65;;
75746;SDS011;70632;52.232;21.038;2024-02-14T11:40:43;6.95;;;2.30;;
75746;SDS011;70632;52.232;21.038;2024-02-14T11:43:16;7.57;;;2.60;;
75746;SDS011;70632;52.232;21.038;2024-02-14T11:45:43;5.00;;;2.65;;
75746;SDS011;70632;52.232;21.038;2024-02-14T11:48:11;5.32;;;2.35;;
75746;SDS011;70632;52.232;21.038;2024-02-14T11:50:41;5.28;;;2.80;;
75746;SDS011;70632;52.232;21.038;2024-02-14T11:53:11;4.18;;;2.83;;
75746;SDS011;70632;52.232;21.038;2024-02-14T11:55:39;5.15;;;2.40;;
75746;SDS011;70632;52.232;21.038;2024-02-14T11:58:15;5.00;;;2.35;;
75746;SDS011;70632;52.232;21.038;2024-02-14T12:00:43;6.00;;;2.75;;
75746;SDS011;70632;52.232;21.038;2024-02-14T12:03:11;6.50;;;2.78;;
75746;SDS011;70632;52.232;21.038;2024-02-14T12:05:38;6.82;;;3.03;;
75746;SDS011;70632;52.232;21.038;2024-02-14T12:08:06;5.93;;;2.90;;
75746;SDS011;70632;52.232;21.038;2024-02-14T12:10:32;6.05;;;2.30;;
75746;SDS011;70632;52.232;21.038;2024-02-14T12:13:04;8.95;;;2.38;;
75746;SDS011;70632;52.232;21.038;2024-02-14T12:15:44;5.80;;;2.63;;
75746;SDS011;70632;52.232;21.038;2024-02-14T12:18:11;9.40;;;2.63;;
75746;SDS011;70632;52.232;21.038;2024-02-14T12:20:37;6.28;;;2.38;;
75746;SDS011;70632;52.232;21.038;2024-02-14T12:23:04;6.22;;;2.60;;
75746;SDS011;70632;52.232;21.038;2024-02-14T12:25:33;7.35;;;3.50;;
75746;SDS011;70632;52.232;21.038;2024-02-14T12:27:59;5.93;;;2.65;;
75746;SDS011;70632;52.232;21.038;2024-02-14T12:30:48;6.50;;;2.80;;
75746;SDS011;70632;52.232;21.038;2024-02-14T12:33:15;7.70;;;3.03;;
75746;SDS011;70632;52.232;21.038;2024-02-14T12:35:43;4.85;;;2.20;;
75746;SDS011;70632;52.232;21.038;2024-02-14T12:38:10;6.43;;;2.88;;
75746;SDS011;70632;52.232;21.038;2024-02-14T12:40:37;4.88;;;2.60;;
75746;SDS011;70632;52.232;21.038;2024-02-14T12:43:04;6.47;;;2.83;;
75746;SDS011;70632;52.232;21.038;2024-02-14T12:45:31;6.68;;;2.60;;
75746;SDS011;70632;52.232;21.038;2024-02-14T12:47:57;6.85;;;2.70;;
75746;SDS011;70632;52.232;21.038;2024-02-14T12:50:23;5.05;;;2.70;;
75746;SDS011;70632;52.232;21.038;2024-02-14T12:52:48;6.47;;;3.05;;
75746;SDS011;70632;52.232;21.038;2024-02-14T12:55:14;6.85;;;2.92;;
75746;SDS011;70632;52.232;21.038;2024-02-14T12:57:40;6.38;;;2.70;;
75746;SDS011;70632;52.232;21.038;2024-02-14T13:00:06;6.65;;;2.80;;
75746;SDS011;70632;52.232;21.038;2024-02-14T13:02:35;5.30;;;3.05;;
75746;SDS011;70632;52.232;21.038;2024-02-14T13:05:00;5.32;;;2.35;;
75746;SDS011;70632;52.232;21.038;2024-02-14T13:07:28;4.20;;;2.30;;
75746;SDS011;70632;52.232;21.038;2024-02-14T13:09:54;8.95;;;2.85;;
75746;SDS011;70632;52.232;21.038;2024-02-14T13:12:20;5.20;;;2.40;;
75746;SDS011;70632;52.232;21.038;2024-02-14T13:14:46;6.88;;;2.58;;
75746;SDS011;70632;52.232;21.038;2024-02-14T13:17:12;6.15;;;2.72;;
75746;SDS011;70632;52.232;21.038;2024-02-14T13:19:39;7.43;;;3.03;;
75746;SDS011;70632;52.232;21.038;2024-02-14T13:22:05;4.90;;;2.50;;
75746;SDS011;70632;52.232;21.038;2024-02-14T13:24:31;8.45;;;2.97;;
75746;SDS011;70632;52.232;21.038;2024-02-14T13:26:57;10.50;;;2.67;;
75746;SDS011;70632;52.232;21.038;2024-02-14T13:29:23;6.88;;;2.50;;
75746;SDS011;70632;52.232;21.038;2024-02-14T13:31:50;6.25;;;2.42;;
75746;SDS011;70632;52.232;21.038;2024-02-14T13:34:16;3.45;;;2.03;;
75746;SDS011;70632;52.232;21.038;2024-02-14T13:36:44;5.95;;;2.33;;
75746;SDS011;70632;52.232;21.038;2024-02-14T13:39:10;7.80;;;2.58;;
75746;SDS011;70632;52.232;21.038;2024-02-14T13:41:38;5.35;;;2.15;;
75746;SDS011;70632;52.232;21.038;2024-02-14T13:44:04;6.95;;;2.38;;
75746;SDS011;70632;52.232;21.038;2024-02-14T13:46:32;7.25;;;2.47;;
75746;SDS011;70632;52.232;21.038;2024-02-14T13:48:58;5.60;;;2.38;;
75746;SDS011;70632;52.232;21.038;2024-02-14T13:51:24;5.00;;;2.58;;
75746;SDS011;70632;52.232;21.038;2024-02-14T13:53:50;5.63;;;2.67;;
75746;SDS011;70632;52.232;21.038;2024-02-14T13:56:16;6.05;;;2.30;;
75746;SDS011;70632;52.232;21.038;2024-02-14T13:58:42;6.10;;;2.65;;
75746;SDS011;70632;52.232;21.038;2024-02-14T14:01:10;5.10;;;2.22;;
75746;SDS011;70632;52.232;21.038;2024-02-14T14:03:36;6.32;;;2.50;;
75746;SDS011;70632;52.232;21.038;2024-02-14T14:06:02;7.55;;;2.85;;
75746;SDS011;70632;52.232;21.038;2024-02-14T14:08:31;7.28;;;2.78;;
75746;SDS011;70632;52.232;21.038;2024-02-14T14:10:57;5.45;;;2.63;;
75746;SDS011;70632;52.232;21.038;2024-02-14T14:13:23;7.18;;;3.47;;
75746;SDS011;70632;52.232;21.038;2024-02-14T14:15:49;6.20;;;3.10;;
75746;SDS011;70632;52.232;21.038;2024-02-14T14:18:14;6.32;;;3.08;;
75746;SDS011;70632;52.232;21.038;2024-02-14T14:20:40;6.20;;;2.65;;
75746;SDS011;70632;52.232;21.038;2024-02-14T14:23:06;6.03;;;3.05;;
75746;SDS011;70632;52.232;21.038;2024-02-14T14:25:34;7.07;;;3.05;;
75746;SDS011;70632;52.232;21.038;2024-02-14T14:28:02;8.90;;;2.53;;
75746;SDS011;70632;52.232;21.038;2024-02-14T14:30:28;6.63;;;2.90;;
75746;SDS011;70632;52.232;21.038;2024-02-14T14:32:54;6.82;;;3.78;;
75746;SDS011;70632;52.232;21.038;2024-02-14T14:35:20;9.30;;;3.33;;
75746;SDS011;70632;52.232;21.038;2024-02-14T14:37:46;7.68;;;3.10;;
75746;SDS011;70632;52.232;21.038;2024-02-14T14:40:12;5.93;;;2.75;;
75746;SDS011;70632;52.232;21.038;2024-02-14T14:42:38;7.97;;;3.30;;
75746;SDS011;70632;52.232;21.038;2024-02-14T14:45:04;6.82;;;3.60;;
75746;SDS011;70632;52.232;21.038;2024-02-14T14:47:30;5.47;;;2.63;;
75746;SDS011;70632;52.232;21.038;2024-02-14T14:49:56;6.28;;;3.20;;
75746;SDS011;70632;52.232;21.038;2024-02-14T14:52:22;6.47;;;3.03;;
75746;SDS011;70632;52.232;21.038;2024-02-14T14:54:48;6.20;;;3.30;;
75746;SDS011;70632;52.232;21.038;2024-02-14T14:57:13;6.45;;;3.08;;
75746;SDS011;70632;52.232;21.038;2024-02-14T14:59:40;6.57;;;2.80;;
75746;SDS011;70632;52.232;21.038;2024-02-14T15:02:06;5.40;;;2.83;;
75746;SDS011;70632;52.232;21.038;2024-02-14T15:04:33;5.70;;;3.47;;
75746;SDS011;70632;52.232;21.038;2024-02-14T15:07:00;7.18;;;3.33;;
75746;SDS011;70632;52.232;21.038;2024-02-14T15:09:26;5.72;;;3.00;;
75746;SDS011;70632;52.232;21.038;2024-02-14T15:11:51;9.60;;;3.10;;
75746;SDS011;70632;52.232;21.038;2024-02-14T15:14:18;7.90;;;3.67;;
75746;SDS011;70632;52.232;21.038;2024-02-14T15:16:44;7.40;;;3.28;;
75746;SDS011;70632;52.232;21.038;2024-02-14T15:19:10;6.20;;;3.05;;
75746;SDS011;70632;52.232;21.038;2024-02-14T15:21:36;7.03;;;3.13;;
75746;SDS011;70632;52.232;21.038;2024-02-14T15:24:02;6.53;;;4.10;;
75746;SDS011;70632;52.232;21.038;2024-02-14T15:26:29;7.00;;;3.45;;
75746;SDS011;70632;52.232;21.038;2024-02-14T15:28:55;9.35;;;3.83;;
75746;SDS011;70632;52.232;21.038;2024-02-14T15:31:39;5.43;;;3.13;;
75746;SDS011;70632;52.232;21.038;2024-02-14T15:34:24;6.25;;;3.97;;
75746;SDS011;70632;52.232;21.038;2024-02-14T15:36:49;9.55;;;3.70;;
75746;SDS011;70632;52.232;21.038;2024-02-14T15:39:15;6.82;;;3.13;;
75746;SDS011;70632;52.232;21.038;2024-02-14T15:41:41;6.70;;;3.83;;
75746;SDS011;70632;52.232;21.038;2024-02-14T15:44:07;12.27;;;3.65;;
75746;SDS011;70632;52.232;21.038;2024-02-14T15:46:33;11.07;;;4.25;;
75746;SDS011;70632;52.232;21.038;2024-02-14T15:48:59;9.80;;;3.75;;
75746;SDS011;70632;52.232;21.038;2024-02-14T15:51:24;8.02;;;3.22;;
75746;SDS011;70632;52.232;21.038;2024-02-14T15:53:52;9.88;;;3.67;;
75746;SDS011;70632;52.232;21.038;2024-02-14T15:56:18;6.25;;;3.80;;
75746;SDS011;70632;52.232;21.038;2024-02-14T15:58:44;8.88;;;3.58;;
75746;SDS011;70632;52.232;21.038;2024-02-14T16:01:10;9.00;;;3.65;;
75746;SDS011;70632;52.232;21.038;2024-02-14T16:03:36;9.10;;;3.42;;
75746;SDS011;70632;52.232;21.038;2024-02-14T16:06:01;7.55;;;3.85;;
75746;SDS011;70632;52.232;21.038;2024-02-14T16:08:27;8.77;;;3.60;;
75746;SDS011;70632;52.232;21.038;2024-02-14T16:10:53;7.13;;;3.63;;
75746;SDS011;70632;52.232;21.038;2024-02-14T16:13:21;6.15;;;3.30;;
75746;SDS011;70632;52.232;21.038;2024-02-14T16:15:47;9.07;;;3.88;;
75746;SDS011;70632;52.232;21.038;2024-02-14T16:18:13;7.20;;;3.88;;
75746;SDS011;70632;52.232;21.038;2024-02-14T16:20:39;9.90;;;3.90;;
75746;SDS011;70632;52.232;21.038;2024-02-14T16:23:05;8.85;;;4.22;;
75746;SDS011;70632;52.232;21.038;2024-02-14T16:25:31;13.25;;;3.75;;
75746;SDS011;70632;52.232;21.038;2024-02-14T16:27:58;8.75;;;3.42;;
75746;SDS011;70632;52.232;21.038;2024-02-14T16:30:24;9.18;;;3.53;;